createdAt,value
2018-08-10T00:00:06.738Z,23.46
2018-08-10T00:00:47.245Z,23.47
2018-08-10T00:01:27.740Z,23.5
2018-08-10T00:02:08.255Z,23.5
2018-08-10T00:02:48.698Z,23.48
2018-08-10T00:03:29.218Z,23.55
2018-08-10T00:04:09.695Z,23.54
2018-08-10T00:04:50.136Z,23.57
2018-08-10T00:05:30.666Z,23.55
2018-08-10T00:06:11.159Z,23.39
2018-08-10T00:06:51.684Z,23.4
2018-08-10T00:07:32.135Z,23.43
2018-08-10T00:08:12.595Z,23.6
2018-08-10T00:08:53.121Z,23.63
2018-08-10T00:09:33.618Z,23.54
2018-08-10T00:10:14.076Z,23.61
2018-08-10T00:10:54.615Z,23.55
2018-08-10T00:11:35.129Z,23.43
2018-08-10T00:12:15.596Z,23.5
2018-08-10T00:12:56.037Z,23.46
2018-08-10T00:13:36.564Z,23.39
2018-08-10T00:14:17.077Z,23.4
2018-08-10T00:14:57.550Z,23.43
2018-08-10T00:15:38.045Z,23.4
2018-08-10T00:16:18.532Z,23.38
2018-08-10T00:16:59.050Z,23.4
2018-08-10T00:17:39.539Z,23.38
2018-08-10T00:18:19.987Z,23.36
2018-08-10T00:19:00.489Z,23.38
2018-08-10T00:19:41.031Z,23.38
2018-08-10T00:20:21.484Z,23.38
2018-08-10T00:21:01.927Z,23.32
2018-08-10T00:21:42.448Z,23.31
2018-08-10T00:22:22.920Z,23.28
2018-08-10T00:23:03.393Z,23.36
2018-08-10T00:23:43.915Z,23.38
2018-08-10T00:24:24.398Z,23.42
2018-08-10T00:25:04.917Z,23.46
2018-08-10T00:25:45.369Z,23.39
2018-08-10T00:26:25.898Z,23.43
2018-08-10T00:27:06.394Z,23.43
2018-08-10T00:27:46.874Z,23.38
2018-08-10T00:28:27.387Z,23.39
2018-08-10T00:29:07.897Z,23.33
2018-08-10T00:29:48.336Z,23.4
2018-08-10T00:30:28.866Z,23.35
2018-08-10T00:31:09.322Z,23.36
2018-08-10T00:31:49.866Z,23.42
2018-08-10T00:32:30.371Z,23.33
2018-08-10T00:33:10.819Z,23.36
2018-08-10T00:33:51.313Z,23.25
2018-08-10T00:34:31.818Z,23.31
2018-08-10T00:35:12.289Z,23.32
2018-08-10T00:35:52.766Z,23.43
2018-08-10T00:36:33.263Z,23.28
2018-08-10T00:37:13.724Z,23.25
2018-08-10T00:37:54.336Z,23.22
2018-08-10T00:38:34.782Z,23.25
2018-08-10T00:39:15.245Z,23.28
2018-08-10T00:39:55.786Z,23.15
2018-08-10T00:40:36.216Z,23.2
2018-08-10T00:41:16.733Z,23.2
2018-08-10T00:41:57.232Z,23.23
2018-08-10T00:42:37.728Z,23.15
2018-08-10T00:43:18.220Z,23.2
2018-08-10T00:43:58.730Z,23.16
2018-08-10T00:44:39.266Z,23.12
2018-08-10T00:45:19.696Z,23.17
2018-08-10T00:46:00.194Z,23.17
2018-08-10T00:46:40.675Z,23.1
2018-08-10T00:47:21.201Z,23.1
2018-08-10T00:48:01.660Z,23.02
2018-08-10T00:48:42.183Z,22.9
2018-08-10T00:49:22.678Z,22.86
2018-08-10T00:50:03.164Z,22.85
2018-08-10T00:50:43.648Z,22.76
2018-08-10T00:51:24.115Z,22.8
2018-08-10T00:52:04.640Z,22.8
2018-08-10T00:52:45.135Z,22.86
2018-08-10T00:53:25.660Z,22.67
2018-08-10T00:54:06.116Z,22.67
2018-08-10T00:54:46.836Z,22.65
2018-08-10T00:55:27.328Z,22.77
2018-08-10T00:56:07.810Z,22.58
2018-08-10T00:56:48.342Z,22.62
2018-08-10T00:57:28.765Z,22.61
2018-08-10T00:58:09.207Z,22.62
2018-08-10T00:58:49.717Z,22.6
2018-08-10T00:59:30.179Z,22.62
2018-08-10T01:00:10.665Z,22.62
2018-08-10T01:00:51.242Z,22.57
2018-08-10T01:01:31.650Z,22.6
2018-08-10T01:02:12.148Z,22.61
2018-08-10T01:02:52.677Z,22.58
2018-08-10T01:03:33.164Z,22.4
2018-08-10T01:04:13.650Z,22.46
2018-08-10T01:04:54.102Z,22.57
2018-08-10T01:05:34.600Z,22.43
2018-08-10T01:06:15.126Z,22.46
2018-08-10T01:06:55.594Z,22.55
2018-08-10T01:07:36.058Z,22.57
2018-08-10T01:08:16.536Z,22.54
2018-08-10T01:08:57.045Z,22.52
2018-08-10T01:09:37.565Z,22.57
2018-08-10T01:10:18.051Z,22.54
2018-08-10T01:10:58.524Z,22.45
2018-08-10T01:11:38.986Z,22.37
2018-08-10T01:12:19.538Z,22.36
2018-08-10T01:13:00.007Z,22.25
2018-08-10T01:13:40.488Z,22.36
2018-08-10T01:14:20.963Z,22.4
2018-08-10T01:15:01.479Z,22.55
2018-08-10T01:15:41.952Z,22.49
2018-08-10T01:16:22.432Z,22.51
2018-08-10T01:17:02.986Z,22.52
2018-08-10T01:17:43.467Z,22.55
2018-08-10T01:18:23.967Z,22.55
2018-08-10T01:19:04.458Z,22.62
2018-08-10T01:19:44.956Z,22.47
2018-08-10T01:20:25.473Z,22.51
2018-08-10T01:21:05.958Z,22.6
2018-08-10T01:21:46.481Z,22.61
2018-08-10T01:22:26.949Z,22.61
2018-08-10T01:23:07.408Z,22.57
2018-08-10T01:23:47.910Z,22.6
2018-08-10T01:24:28.372Z,22.49
2018-08-10T01:25:08.855Z,22.54
2018-08-10T01:25:49.344Z,22.64
2018-08-10T01:26:29.811Z,22.58
2018-08-10T01:27:10.320Z,22.58
2018-08-10T01:27:50.809Z,22.55
2018-08-10T01:28:31.401Z,22.52
2018-08-10T01:29:11.820Z,22.46
2018-08-10T01:29:52.352Z,22.4
2018-08-10T01:30:32.863Z,22.46
2018-08-10T01:31:13.300Z,22.49
2018-08-10T01:31:53.782Z,22.52
2018-08-10T01:32:34.334Z,22.54
2018-08-10T01:33:14.786Z,22.54
2018-08-10T01:33:55.365Z,22.42
2018-08-10T01:34:35.791Z,22.49
2018-08-10T01:35:16.280Z,22.46
2018-08-10T01:35:56.738Z,22.57
2018-08-10T01:36:37.279Z,22.57
2018-08-10T01:37:17.750Z,22.57
2018-08-10T01:37:58.234Z,22.54
2018-08-10T01:38:38.733Z,22.52
2018-08-10T01:39:19.235Z,22.51
2018-08-10T01:39:59.708Z,22.57
2018-08-10T01:40:40.172Z,22.57
2018-08-10T01:41:20.700Z,22.57
2018-08-10T01:42:01.221Z,22.43
2018-08-10T01:42:41.701Z,22.36
2018-08-10T01:43:22.162Z,22.3
2018-08-10T01:44:02.750Z,22.27
2018-08-10T01:44:43.237Z,22.35
2018-08-10T01:45:23.729Z,22.14
2018-08-10T01:46:04.224Z,22.2
2018-08-10T01:46:44.690Z,22.25
2018-08-10T01:47:25.199Z,22.3
2018-08-10T01:48:05.650Z,22.24
2018-08-10T01:48:46.183Z,22.28
2018-08-10T01:49:26.695Z,22.18
2018-08-10T01:50:07.191Z,22.18
2018-08-10T01:50:47.627Z,22.2
2018-08-10T01:51:28.103Z,22.22
2018-08-10T01:52:08.599Z,22.17
2018-08-10T01:52:49.085Z,22.12
2018-08-10T01:53:29.587Z,21.99
2018-08-10T01:54:10.074Z,22.1
2018-08-10T01:54:50.587Z,22.09
2018-08-10T01:55:31.101Z,22.03
2018-08-10T01:56:11.548Z,22.09
2018-08-10T01:56:52.200Z,22.2
2018-08-10T01:57:32.635Z,22.14
2018-08-10T01:58:13.189Z,22.2
2018-08-10T01:58:53.739Z,22.24
2018-08-10T01:59:34.164Z,22.18
2018-08-10T02:00:14.649Z,22.2
2018-08-10T02:00:55.273Z,22.22
2018-08-10T02:01:35.795Z,22.15
2018-08-10T02:02:16.373Z,22.12
2018-08-10T02:02:56.798Z,22.17
2018-08-10T02:03:37.372Z,22.14
2018-08-10T02:04:17.837Z,22.21
2018-08-10T02:04:58.321Z,22.3
2018-08-10T02:05:38.791Z,22.3
2018-08-10T02:06:19.449Z,22.31
2018-08-10T02:06:59.897Z,22.28
2018-08-10T02:07:40.396Z,22.35
2018-08-10T02:08:20.877Z,22.33
2018-08-10T02:09:01.506Z,22.31
2018-08-10T02:09:41.879Z,22.18
2018-08-10T02:10:22.311Z,22.14
2018-08-10T02:11:02.904Z,22.18
2018-08-10T02:11:43.374Z,21.99
2018-08-10T02:12:23.854Z,22.09
2018-08-10T02:13:04.333Z,22.03
2018-08-10T02:13:44.824Z,22.05
2018-08-10T02:14:25.369Z,21.96
2018-08-10T02:15:05.792Z,21.92
2018-08-10T02:15:46.359Z,21.99
2018-08-10T02:16:26.841Z,21.98
2018-08-10T02:17:07.359Z,21.96
2018-08-10T02:17:47.875Z,21.94
2018-08-10T02:18:28.353Z,22.03
2018-08-10T02:19:08.878Z,21.99
2018-08-10T02:19:49.371Z,22.05
2018-08-10T02:20:29.831Z,22.02
2018-08-10T02:21:10.330Z,21.99
2018-08-10T02:21:50.823Z,22.06
2018-08-10T02:22:31.320Z,22.14
2018-08-10T02:23:11.835Z,22.14
2018-08-10T02:23:52.282Z,22.14
2018-08-10T02:24:32.861Z,22.07
2018-08-10T02:25:13.276Z,22.14
2018-08-10T02:25:53.893Z,22.06
2018-08-10T02:26:34.340Z,22.05
2018-08-10T02:27:14.978Z,22.02
2018-08-10T02:27:55.509Z,22.06
2018-08-10T02:28:35.968Z,22.02
2018-08-10T02:29:16.478Z,21.96
2018-08-10T02:29:56.948Z,21.94
2018-08-10T02:30:37.388Z,22.02
2018-08-10T02:31:17.905Z,21.96
2018-08-10T02:31:58.392Z,21.92
2018-08-10T02:32:38.831Z,21.98
2018-08-10T02:33:19.357Z,21.98
2018-08-10T02:33:59.794Z,22
2018-08-10T02:34:40.350Z,21.9
2018-08-10T02:35:20.806Z,21.94
2018-08-10T02:36:01.333Z,21.94
2018-08-10T02:36:42.065Z,21.86
2018-08-10T02:37:22.560Z,21.86
2018-08-10T02:38:03.017Z,21.92
2018-08-10T02:38:43.503Z,21.92
2018-08-10T02:39:24.017Z,21.98
2018-08-10T02:40:04.515Z,21.86
2018-08-10T02:40:45.074Z,21.96
2018-08-10T02:41:25.572Z,21.79
2018-08-10T02:42:06.098Z,21.98
2018-08-10T02:42:46.524Z,21.91
2018-08-10T02:43:27.249Z,21.9
2018-08-10T02:44:07.906Z,21.98
2018-08-10T02:44:48.304Z,22
2018-08-10T02:45:28.826Z,21.91
2018-08-10T02:46:14.668Z,21.84
2018-08-10T02:46:55.170Z,21.84
2018-08-10T02:47:35.691Z,21.82
2018-08-10T02:48:16.163Z,21.82
2018-08-10T02:48:56.642Z,21.83
2018-08-10T02:49:37.450Z,21.91
2018-08-10T02:50:17.941Z,21.77
2018-08-10T02:50:58.436Z,21.83
2018-08-10T02:51:38.916Z,21.82
2018-08-10T02:52:19.446Z,21.82
2018-08-10T02:52:59.917Z,21.74
2018-08-10T02:53:40.422Z,21.74
2018-08-10T02:54:20.875Z,21.82
2018-08-10T02:55:01.381Z,21.88
2018-08-10T02:55:41.887Z,21.83
2018-08-10T02:56:22.331Z,21.8
2018-08-10T02:57:02.848Z,21.82
2018-08-10T02:57:43.277Z,21.96
2018-08-10T02:58:23.826Z,21.94
2018-08-10T02:59:04.275Z,22.02
2018-08-10T02:59:44.809Z,22.03
2018-08-10T03:00:25.230Z,22.03
2018-08-10T03:01:05.723Z,22.02
2018-08-10T03:01:46.256Z,22.02
2018-08-10T03:02:26.741Z,22.02
2018-08-10T03:03:07.217Z,21.96
2018-08-10T03:03:47.685Z,22.02
2018-08-10T03:04:28.313Z,21.92
2018-08-10T03:05:08.764Z,21.88
2018-08-10T03:05:49.393Z,21.77
2018-08-10T03:06:29.865Z,21.72
2018-08-10T03:07:10.372Z,21.84
2018-08-10T03:07:50.849Z,21.79
2018-08-10T03:08:31.376Z,21.75
2018-08-10T03:09:11.830Z,21.84
2018-08-10T03:09:52.307Z,21.74
2018-08-10T03:10:32.808Z,21.84
2018-08-10T03:11:13.327Z,21.84
2018-08-10T03:11:53.785Z,21.83
2018-08-10T03:12:34.280Z,21.79
2018-08-10T03:13:14.796Z,21.67
2018-08-10T03:13:55.264Z,21.64
2018-08-10T03:14:35.745Z,21.67
2018-08-10T03:15:16.210Z,21.69
2018-08-10T03:15:56.914Z,21.77
2018-08-10T03:16:37.384Z,21.84
2018-08-10T03:17:17.899Z,21.68
2018-08-10T03:17:58.420Z,21.71
2018-08-10T03:18:38.899Z,21.62
2018-08-10T03:19:19.484Z,21.67
2018-08-10T03:19:59.924Z,21.68
2018-08-10T03:20:40.479Z,21.65
2018-08-10T03:21:21.026Z,21.61
2018-08-10T03:22:01.580Z,21.64
2018-08-10T03:22:42.045Z,21.65
2018-08-10T03:23:22.605Z,21.69
2018-08-10T03:24:03.071Z,21.71
2018-08-10T03:24:43.578Z,21.65
2018-08-10T03:25:24.058Z,21.71
2018-08-10T03:26:04.555Z,21.65
2018-08-10T03:26:44.999Z,21.75
2018-08-10T03:27:25.490Z,21.79
2018-08-10T03:28:06.014Z,21.82
2018-08-10T03:28:46.484Z,21.8
2018-08-10T03:29:27.001Z,21.71
2018-08-10T03:30:07.447Z,21.83
2018-08-10T03:30:47.943Z,21.79
2018-08-10T03:31:28.442Z,21.83
2018-08-10T03:32:09.022Z,21.84
2018-08-10T03:32:49.519Z,21.96
2018-08-10T03:33:29.981Z,21.91
2018-08-10T03:34:10.425Z,21.9
2018-08-10T03:34:50.958Z,21.77
2018-08-10T03:35:31.411Z,21.92
2018-08-10T03:36:11.903Z,21.99
2018-08-10T03:36:52.412Z,21.82
2018-08-10T03:37:32.890Z,21.72
2018-08-10T03:38:13.365Z,21.79
2018-08-10T03:38:53.860Z,21.82
2018-08-10T03:39:34.395Z,21.79
2018-08-10T03:40:14.913Z,21.77
2018-08-10T03:40:55.379Z,21.64
2018-08-10T03:41:35.879Z,21.58
2018-08-10T03:42:16.345Z,21.67
2018-08-10T03:42:56.837Z,21.65
2018-08-10T03:43:37.301Z,21.71
2018-08-10T03:44:17.762Z,21.47
2018-08-10T03:44:58.276Z,21.49
2018-08-10T03:45:38.735Z,21.49
2018-08-10T03:46:19.209Z,21.42
2018-08-10T03:46:59.743Z,21.58
2018-08-10T03:47:40.192Z,21.59
2018-08-10T03:48:20.682Z,21.71
2018-08-10T03:49:01.216Z,21.77
2018-08-10T03:49:41.740Z,21.69
2018-08-10T03:50:22.153Z,21.65
2018-08-10T03:51:02.768Z,21.71
2018-08-10T03:51:43.135Z,21.72
2018-08-10T03:52:23.606Z,21.82
2018-08-10T03:53:04.146Z,21.77
2018-08-10T03:53:44.614Z,21.62
2018-08-10T03:54:25.150Z,21.64
2018-08-10T03:55:05.813Z,21.47
2018-08-10T03:55:46.357Z,21.53
2018-08-10T03:56:26.844Z,21.61
2018-08-10T03:57:07.338Z,21.61
2018-08-10T03:57:47.791Z,21.46
2018-08-10T03:58:28.331Z,21.44
2018-08-10T03:59:08.809Z,21.42
2018-08-10T03:59:49.289Z,21.34
2018-08-10T04:00:29.752Z,21.44
2018-08-10T04:01:10.240Z,21.4
2018-08-10T04:01:50.755Z,21.4
2018-08-10T04:02:31.215Z,21.32
2018-08-10T04:03:11.696Z,21.38
2018-08-10T04:03:52.153Z,21.4
2018-08-10T04:04:33.311Z,21.44
2018-08-10T04:06:33.256Z,21.52
2018-08-10T04:07:13.768Z,21.47
2018-08-10T04:07:54.296Z,21.52
2018-08-10T04:08:35.588Z,21.49
2018-08-10T04:09:16.070Z,21.56
2018-08-10T04:09:56.568Z,21.65
2018-08-10T04:10:37.041Z,21.77
2018-08-10T04:11:17.547Z,21.71
2018-08-10T04:11:58.017Z,21.79
2018-08-10T04:12:38.520Z,21.72
2018-08-10T04:13:18.982Z,21.65
2018-08-10T04:13:59.488Z,21.59
2018-08-10T04:14:39.968Z,21.64
2018-08-10T04:15:20.429Z,21.77
2018-08-10T04:16:01.017Z,21.67
2018-08-10T04:16:41.483Z,21.72
2018-08-10T04:17:21.951Z,21.74
2018-08-10T04:18:02.404Z,21.72
2018-08-10T04:18:42.897Z,21.72
2018-08-10T04:19:23.390Z,21.8
2018-08-10T04:20:03.874Z,21.82
2018-08-10T04:20:44.464Z,21.8
2018-08-10T04:21:24.943Z,21.71
2018-08-10T04:22:05.376Z,21.61
2018-08-10T04:22:45.899Z,21.64
2018-08-10T04:23:26.378Z,21.64
2018-08-10T04:24:06.860Z,21.67
2018-08-10T04:24:47.374Z,21.74
2018-08-10T04:25:27.875Z,21.67
2018-08-10T04:26:08.407Z,21.62
2018-08-10T04:26:48.831Z,21.61
2018-08-10T04:27:29.317Z,21.72
2018-08-10T04:28:09.789Z,21.71
2018-08-10T04:28:50.344Z,21.69
2018-08-10T04:29:30.818Z,21.61
2018-08-10T04:30:11.233Z,21.59
2018-08-10T04:30:51.732Z,21.68
2018-08-10T04:31:32.237Z,21.43
2018-08-10T04:32:12.691Z,21.46
2018-08-10T04:32:53.203Z,21.43
2018-08-10T04:33:33.696Z,21.43
2018-08-10T04:34:14.205Z,21.44
2018-08-10T04:34:54.726Z,21.29
2018-08-10T04:35:35.167Z,21.4
2018-08-10T04:36:15.651Z,21.43
2018-08-10T04:36:56.151Z,21.28
2018-08-10T04:37:36.651Z,21.31
2018-08-10T04:38:17.140Z,21.49
2018-08-10T04:38:57.582Z,21.46
2018-08-10T04:39:38.106Z,21.31
2018-08-10T04:40:18.576Z,21.42
2018-08-10T04:40:59.094Z,21.31
2018-08-10T04:41:39.574Z,21.27
2018-08-10T04:42:20.076Z,21.25
2018-08-10T04:43:00.594Z,21.19
2018-08-10T04:43:41.049Z,21.24
2018-08-10T04:44:21.621Z,21.35
2018-08-10T04:45:02.021Z,21.37
2018-08-10T04:45:42.535Z,21.35
2018-08-10T04:46:23.008Z,21.38
2018-08-10T04:47:03.513Z,21.43
2018-08-10T04:47:43.958Z,21.46
2018-08-10T04:48:24.471Z,21.69
2018-08-10T04:49:04.954Z,21.71
2018-08-10T04:49:45.382Z,21.74
2018-08-10T04:50:25.928Z,21.82
2018-08-10T04:51:06.410Z,21.83
2018-08-10T04:51:46.901Z,22.02
2018-08-10T04:52:27.439Z,22.02
2018-08-10T04:53:07.894Z,21.79
2018-08-10T04:53:48.371Z,21.72
2018-08-10T04:54:28.827Z,21.54
2018-08-10T04:55:09.457Z,21.62
2018-08-10T04:55:49.868Z,21.64
2018-08-10T04:56:30.340Z,21.38
2018-08-10T04:57:10.857Z,21.56
2018-08-10T04:57:51.328Z,21.53
2018-08-10T04:58:31.804Z,21.52
2018-08-10T04:59:12.293Z,21.5
2018-08-10T04:59:52.776Z,21.62
2018-08-10T05:00:33.240Z,21.75
2018-08-10T05:01:13.752Z,21.77
2018-08-10T05:01:54.288Z,21.8
2018-08-10T05:02:34.747Z,21.71
2018-08-10T05:03:15.190Z,21.75
2018-08-10T05:03:55.825Z,21.58
2018-08-10T05:04:36.309Z,21.47
2018-08-10T05:05:16.888Z,21.53
2018-08-10T05:05:57.382Z,21.47
2018-08-10T05:06:37.836Z,21.49
2018-08-10T05:07:18.316Z,21.4
2018-08-10T05:07:58.807Z,21.29
2018-08-10T05:08:39.439Z,21.31
2018-08-10T05:09:19.908Z,21.53
2018-08-10T05:10:00.427Z,21.58
2018-08-10T05:10:40.849Z,21.67
2018-08-10T05:11:21.374Z,21.71
2018-08-10T05:12:01.874Z,21.72
2018-08-10T05:12:42.366Z,21.68
2018-08-10T05:13:22.850Z,21.67
2018-08-10T05:14:03.354Z,21.82
2018-08-10T05:14:43.948Z,21.79
2018-08-10T05:15:24.309Z,21.8
2018-08-10T05:16:04.801Z,21.8
2018-08-10T05:16:45.266Z,21.77
2018-08-10T05:17:25.777Z,21.71
2018-08-10T05:18:06.294Z,21.72
2018-08-10T05:18:46.794Z,21.69
2018-08-10T05:19:27.315Z,21.8
2018-08-10T05:20:07.767Z,21.82
2018-08-10T05:20:48.265Z,21.68
2018-08-10T05:21:28.725Z,21.58
2018-08-10T05:22:09.234Z,21.67
2018-08-10T05:22:49.794Z,21.69
2018-08-10T05:23:30.259Z,21.74
2018-08-10T05:24:10.719Z,21.64
2018-08-10T05:24:51.248Z,21.61
2018-08-10T05:25:31.707Z,21.58
2018-08-10T05:26:12.212Z,21.67
2018-08-10T05:26:52.814Z,21.74
2018-08-10T05:27:33.267Z,21.67
2018-08-10T05:28:13.815Z,21.54
2018-08-10T05:28:54.271Z,21.38
2018-08-10T05:29:34.756Z,21.34
2018-08-10T05:30:15.258Z,21.37
2018-08-10T05:30:55.742Z,21.43
2018-08-10T05:31:36.247Z,21.49
2018-08-10T05:32:16.709Z,21.4
2018-08-10T05:32:57.205Z,21.28
2018-08-10T05:33:37.679Z,21.22
2018-08-10T05:34:18.227Z,21.22
2018-08-10T05:34:58.664Z,21.13
2018-08-10T05:35:39.307Z,21.13
2018-08-10T05:36:19.860Z,21.04
2018-08-10T05:37:00.382Z,21.22
2018-08-10T05:37:40.854Z,21.19
2018-08-10T05:38:21.390Z,21.14
2018-08-10T05:39:01.850Z,21.16
2018-08-10T05:39:42.295Z,21.19
2018-08-10T05:40:22.784Z,21.06
2018-08-10T05:41:03.258Z,21.04
2018-08-10T05:41:43.787Z,21.12
2018-08-10T05:42:24.253Z,21.31
2018-08-10T05:43:04.736Z,21.35
2018-08-10T05:43:45.243Z,21.32
2018-08-10T05:44:25.716Z,21.35
2018-08-10T05:45:06.201Z,21.31
2018-08-10T05:45:46.679Z,21.37
2018-08-10T05:46:27.250Z,21.44
2018-08-10T05:47:07.727Z,21.46
2018-08-10T05:47:48.153Z,21.44
2018-08-10T05:48:28.847Z,21.46
2018-08-10T05:49:09.354Z,21.61
2018-08-10T05:49:49.865Z,21.75
2018-08-10T05:50:30.346Z,22
2018-08-10T05:51:10.853Z,22.1
2018-08-10T05:51:51.307Z,22.2
2018-08-10T05:52:31.830Z,22.46
2018-08-10T05:53:12.308Z,22.58
2018-08-10T05:53:52.754Z,22.73
2018-08-10T05:54:33.348Z,22.8
2018-08-10T05:55:13.805Z,22.77
2018-08-10T05:55:54.289Z,22.77
2018-08-10T05:56:34.794Z,22.91
2018-08-10T05:57:15.420Z,22.94
2018-08-10T05:57:55.891Z,23
2018-08-10T05:58:36.372Z,23
2018-08-10T05:59:16.886Z,22.67
2018-08-10T05:59:57.386Z,22.65
2018-08-10T06:00:37.915Z,22.58
2018-08-10T06:01:18.355Z,22.64
2018-08-10T06:01:58.856Z,22.51
2018-08-10T06:02:39.357Z,22.55
2018-08-10T06:03:19.950Z,22.57
2018-08-10T06:04:00.438Z,22.51
2018-08-10T06:04:40.880Z,22.55
2018-08-10T06:05:21.373Z,22.51
2018-08-10T06:06:01.806Z,22.58
2018-08-10T06:06:42.327Z,22.52
2018-08-10T06:07:22.879Z,22.57
2018-08-10T06:08:03.291Z,22.67
2018-08-10T06:08:43.773Z,22.67
2018-08-10T06:09:24.335Z,22.83
2018-08-10T06:10:04.832Z,22.85
2018-08-10T06:10:45.311Z,22.86
2018-08-10T06:11:25.855Z,22.82
2018-08-10T06:12:06.286Z,22.88
2018-08-10T06:12:46.828Z,23.01
2018-08-10T06:13:27.307Z,22.92
2018-08-10T06:14:07.751Z,22.92
2018-08-10T06:14:48.222Z,22.9
2018-08-10T06:15:28.778Z,23.02
2018-08-10T06:16:09.230Z,23.15
2018-08-10T06:16:49.670Z,23.12
2018-08-10T06:17:30.190Z,23.02
2018-08-10T06:18:10.634Z,23.09
2018-08-10T06:18:51.132Z,23.15
2018-08-10T06:19:31.696Z,23.07
2018-08-10T06:20:12.084Z,23.13
2018-08-10T06:20:52.587Z,23.15
2018-08-10T06:21:33.187Z,23.19
2018-08-10T06:22:13.639Z,23.07
2018-08-10T06:22:54.148Z,23.1
2018-08-10T06:23:34.585Z,23.13
2018-08-10T06:24:15.039Z,23.12
2018-08-10T06:24:55.601Z,23.09
2018-08-10T06:25:36.043Z,23.17
2018-08-10T06:26:16.517Z,23.22
2018-08-10T06:26:57.036Z,23.25
2018-08-10T06:27:37.534Z,23.25
2018-08-10T06:28:18.008Z,23.38
2018-08-10T06:28:58.496Z,23.38
2018-08-10T06:29:39.034Z,23.22
2018-08-10T06:30:19.482Z,23.1
2018-08-10T06:31:00.017Z,23.22
2018-08-10T06:31:40.505Z,23.17
2018-08-10T06:32:20.995Z,23.23
2018-08-10T06:33:01.492Z,23.38
2018-08-10T06:33:42.003Z,23.35
2018-08-10T06:34:22.435Z,23.35
2018-08-10T06:35:02.924Z,23.48
2018-08-10T06:35:43.442Z,23.42
2018-08-10T06:36:23.930Z,23.57
2018-08-10T06:37:04.565Z,23.4
2018-08-10T06:37:44.977Z,23.57
2018-08-10T06:38:25.407Z,23.51
2018-08-10T06:39:05.897Z,23.63
2018-08-10T06:39:46.496Z,23.57
2018-08-10T06:40:26.883Z,23.47
2018-08-10T06:41:07.406Z,23.38
2018-08-10T06:41:47.847Z,23.31
2018-08-10T06:42:28.360Z,23.36
2018-08-10T06:43:08.883Z,23.48
2018-08-10T06:43:49.348Z,23.48
2018-08-10T06:44:29.835Z,23.38
2018-08-10T06:45:10.355Z,23.28
2018-08-10T06:45:50.875Z,23.33
2018-08-10T06:46:31.338Z,23.27
2018-08-10T06:47:11.833Z,23.42
2018-08-10T06:47:52.304Z,23.42
2018-08-10T06:48:32.803Z,23.58
2018-08-10T06:49:13.291Z,23.63
2018-08-10T06:49:53.789Z,23.73
2018-08-10T06:50:34.413Z,23.84
2018-08-10T06:51:14.919Z,23.91
2018-08-10T06:51:55.374Z,24
2018-08-10T06:52:35.876Z,24.27
2018-08-10T06:53:16.362Z,24.22
2018-08-10T06:53:56.811Z,24.31
2018-08-10T06:54:37.326Z,24.4
2018-08-10T06:55:17.794Z,24.5
2018-08-10T06:55:58.468Z,24.31
2018-08-10T06:56:38.804Z,24.35
2018-08-10T06:57:19.270Z,24.55
2018-08-10T06:57:59.773Z,24.64
2018-08-10T06:58:40.261Z,24.83
2018-08-10T06:59:20.778Z,24.78
2018-08-10T07:00:01.260Z,24.95
2018-08-10T07:00:41.883Z,24.8
2018-08-10T07:01:22.276Z,24.76
2018-08-10T07:02:02.739Z,24.76
2018-08-10T07:02:43.251Z,24.93
2018-08-10T07:03:23.793Z,24.88
2018-08-10T07:04:04.264Z,25.1
2018-08-10T07:04:44.754Z,25.28
2018-08-10T07:05:25.245Z,25.36
2018-08-10T07:06:05.741Z,25.39
2018-08-10T07:06:55.280Z,25.42
2018-08-10T07:07:35.864Z,25.51
2018-08-10T07:08:17.353Z,25.52
2018-08-10T07:08:57.830Z,25.45
2018-08-10T07:09:38.341Z,25.47
2018-08-10T07:10:18.808Z,25.33
2018-08-10T07:10:59.347Z,25.45
2018-08-10T07:11:39.832Z,25.61
2018-08-10T07:12:20.336Z,25.54
2018-08-10T07:13:00.841Z,25.64
2018-08-10T07:13:41.382Z,25.62
2018-08-10T07:14:21.812Z,25.61
2018-08-10T07:15:02.277Z,25.6
2018-08-10T07:15:42.763Z,25.36
2018-08-10T07:16:23.355Z,25.15
2018-08-10T07:17:03.758Z,25
2018-08-10T07:17:44.202Z,24.93
2018-08-10T07:18:24.725Z,25.09
2018-08-10T07:19:05.270Z,24.98
2018-08-10T07:19:45.705Z,24.76
2018-08-10T07:20:26.209Z,24.71
2018-08-10T07:21:06.690Z,24.78
2018-08-10T07:21:47.207Z,24.99
2018-08-10T07:22:27.645Z,25.18
2018-08-10T07:23:08.137Z,25.23
2018-08-10T07:23:49.041Z,25.5
2018-08-10T07:24:29.522Z,25.45
2018-08-10T07:25:09.988Z,25.58
2018-08-10T07:25:50.478Z,25.61
2018-08-10T07:26:30.955Z,25.88
2018-08-10T07:27:11.514Z,25.98
2018-08-10T07:27:52.186Z,26.02
2018-08-10T07:28:32.816Z,26.13
2018-08-10T07:29:13.265Z,26.21
2018-08-10T07:29:58.355Z,26.26
2018-08-10T07:30:38.868Z,26.23
2018-08-10T07:31:19.406Z,26.32
2018-08-10T07:31:59.915Z,26.15
2018-08-10T07:32:40.422Z,26.17
2018-08-10T07:33:20.900Z,25.91
2018-08-10T07:34:01.421Z,25.77
2018-08-10T07:34:41.948Z,25.61
2018-08-10T07:35:22.397Z,25.61
2018-08-10T07:36:02.875Z,25.55
2018-08-10T07:36:45.802Z,25.57
2018-08-10T07:37:27.028Z,25.52
2018-08-10T07:38:49.010Z,25.77
2018-08-10T07:39:29.515Z,25.88
2018-08-10T07:40:10.016Z,25.87
2018-08-10T07:40:50.485Z,25.79
2018-08-10T07:41:30.974Z,25.55
2018-08-10T07:42:11.957Z,25.33
2018-08-10T07:42:52.991Z,25.25
2018-08-10T07:43:41.707Z,25.21
2018-08-10T07:44:22.324Z,25.38
2018-08-10T07:46:27.024Z,25.95
2018-08-10T07:47:07.488Z,25.98
2018-08-10T07:47:48.008Z,25.91
2018-08-10T07:48:28.553Z,25.72
2018-08-10T07:50:21.713Z,25.9
2018-08-10T07:51:03.336Z,25.95
2018-08-10T07:51:42.961Z,25.94
2018-08-10T07:52:24.401Z,26.02
2018-08-10T07:53:04.914Z,26.02
2018-08-10T07:53:45.481Z,26.1
2018-08-10T07:54:26.009Z,25.79
2018-08-10T07:55:06.488Z,25.64
2018-08-10T07:55:46.980Z,25.52
2018-08-10T07:56:27.630Z,25.52
2018-08-10T07:57:08.184Z,25.64
2018-08-10T07:57:48.636Z,25.38
2018-08-10T07:58:29.176Z,25.39
2018-08-10T07:59:09.734Z,25.5
2018-08-10T07:59:50.364Z,25.46
2018-08-10T08:00:30.834Z,25.52
2018-08-10T08:01:11.364Z,25.64
2018-08-10T08:01:51.914Z,25.8
2018-08-10T08:02:32.389Z,25.87
2018-08-10T08:03:12.980Z,25.82
2018-08-10T08:03:53.348Z,25.82
2018-08-10T08:04:33.836Z,25.7
2018-08-10T08:05:14.395Z,25.91
2018-08-10T08:05:54.904Z,25.76
2018-08-10T08:06:35.489Z,25.58
2018-08-10T08:07:15.949Z,25.42
2018-08-10T08:07:56.467Z,25.47
2018-08-10T08:08:36.924Z,25.51
2018-08-10T08:09:17.438Z,25.57
2018-08-10T08:09:58.119Z,25.61
2018-08-10T08:10:38.840Z,25.62
2018-08-10T08:11:18.957Z,25.69
2018-08-10T08:11:59.831Z,25.6
2018-08-10T08:12:40.295Z,25.6
2018-08-10T08:13:21.549Z,25.69
2018-08-10T08:14:02.077Z,25.76
2018-08-10T08:14:42.589Z,25.67
2018-08-10T08:15:23.015Z,25.35
2018-08-10T08:16:03.560Z,25.38
2018-08-10T08:16:44.099Z,25.3
2018-08-10T08:17:24.633Z,25.17
2018-08-10T08:18:05.289Z,25.15
2018-08-10T08:18:45.559Z,25.14
2018-08-10T08:19:26.466Z,25.21
2018-08-10T08:20:06.895Z,25.17
2018-08-10T08:20:47.399Z,25.1
2018-08-10T08:21:27.933Z,25.06
2018-08-10T08:22:08.373Z,25.08
2018-08-10T08:22:48.856Z,25.13
2018-08-10T08:23:29.508Z,24.99
2018-08-10T08:24:09.977Z,25.1
2018-08-10T08:24:50.422Z,25.18
2018-08-10T08:25:30.926Z,25.21
2018-08-10T08:26:11.425Z,25.17
2018-08-10T08:26:51.911Z,25.25
2018-08-10T08:27:32.407Z,25.18
2018-08-10T08:28:12.888Z,25.3
2018-08-10T08:28:53.358Z,25.39
2018-08-10T08:29:33.888Z,25.39
2018-08-10T08:30:21.674Z,25.55
2018-08-10T08:31:02.136Z,25.65
2018-08-10T08:31:42.657Z,25.73
2018-08-10T08:32:23.143Z,25.72
2018-08-10T08:33:03.722Z,25.65
2018-08-10T08:33:44.188Z,25.64
2018-08-10T08:34:24.663Z,25.7
2018-08-10T08:35:05.230Z,25.67
2018-08-10T08:35:45.670Z,25.79
2018-08-10T08:36:26.140Z,25.76
2018-08-10T08:37:06.684Z,25.61
2018-08-10T08:37:47.150Z,25.67
2018-08-10T08:38:27.710Z,25.77
2018-08-10T08:39:08.123Z,26.06
2018-08-10T08:39:48.654Z,25.98
2018-08-10T08:40:29.128Z,26.12
2018-08-10T08:41:10.286Z,26.26
2018-08-10T08:41:50.804Z,26.21
2018-08-10T08:42:31.298Z,26.28
2018-08-10T08:43:11.782Z,26.23
2018-08-10T08:43:52.267Z,26.35
2018-08-10T08:44:33.581Z,26.21
2018-08-10T08:45:14.065Z,26.07
2018-08-10T08:45:55.361Z,26.01
2018-08-10T08:46:35.936Z,25.9
2018-08-10T08:47:16.194Z,25.88
2018-08-10T08:47:56.813Z,25.76
2018-08-10T08:48:37.301Z,25.67